sensor_id;sensor_type;location;lat;lon;timestamp;P1;durP1;ratioP1;P2;durP2;ratioP2
73136;SDS011;67767;45.636;11.756;2024-02-23T00:00:31;50.58;;;26.17;;
73136;SDS011;67767;45.636;11.756;2024-02-23T00:02:57;45.47;;;24.58;;
73136;SDS011;67767;45.636;11.756;2024-02-23T00:05:23;44.27;;;24.37;;
73136;SDS011;67767;45.636;11.756;2024-02-23T00:07:49;42.55;;;22.80;;
73136;SDS011;67767;45.636;11.756;2024-02-23T00:10:15;43.50;;;23.65;;
73136;SDS011;67767;45.636;11.756;2024-02-23T00:12:42;43.53;;;22.73;;
73136;SDS011;67767;45.636;11.756;2024-02-23T00:15:09;41.53;;;21.90;;
73136;SDS011;67767;45.636;11.756;2024-02-23T00:17:35;41.67;;;21.57;;
73136;SDS011;67767;45.636;11.756;2024-02-23T00:20:01;38.88;;;20.70;;
73136;SDS011;67767;45.636;11.756;2024-02-23T00:22:27;38.72;;;21.27;;
73136;SDS011;67767;45.636;11.756;2024-02-23T00:24:53;41.10;;;20.77;;
73136;SDS011;67767;45.636;11.756;2024-02-23T00:27:19;40.22;;;21.42;;
73136;SDS011;67767;45.636;11.756;2024-02-23T00:29:45;40.43;;;21.30;;
73136;SDS011;67767;45.636;11.756;2024-02-23T00:32:11;41.80;;;21.42;;
73136;SDS011;67767;45.636;11.756;2024-02-23T00:34:37;39.83;;;19.90;;
73136;SDS011;67767;45.636;11.756;2024-02-23T00:37:03;41.58;;;21.50;;
73136;SDS011;67767;45.636;11.756;2024-02-23T00:39:30;38.00;;;19.63;;
73136;SDS011;67767;45.636;11.756;2024-02-23T00:41:57;38.90;;;20.33;;
73136;SDS011;67767;45.636;11.756;2024-02-23T00:44:23;36.65;;;19.50;;
73136;SDS011;67767;45.636;11.756;2024-02-23T00:46:49;37.47;;;19.15;;
73136;SDS011;67767;45.636;11.756;2024-02-23T00:49:15;38.45;;;19.33;;
73136;SDS011;67767;45.636;11.756;2024-02-23T00:51:41;37.28;;;18.90;;
73136;SDS011;67767;45.636;11.756;2024-02-23T00:54:07;32.73;;;16.63;;
73136;SDS011;67767;45.636;11.756;2024-02-23T00:56:34;38.40;;;18.58;;
73136;SDS011;67767;45.636;11.756;2024-02-23T00:59:00;34.42;;;17.65;;
73136;SDS011;67767;45.636;11.756;2024-02-23T01:01:26;31.65;;;16.88;;
73136;SDS011;67767;45.636;11.756;2024-02-23T01:03:53;30.52;;;16.15;;
73136;SDS011;67767;45.636;11.756;2024-02-23T01:06:19;32.83;;;16.83;;
73136;SDS011;67767;45.636;11.756;2024-02-23T01:08:45;30.10;;;16.25;;
73136;SDS011;67767;45.636;11.756;2024-02-23T01:11:12;29.02;;;14.82;;
73136;SDS011;67767;45.636;11.756;2024-02-23T01:13:38;31.42;;;15.95;;
73136;SDS011;67767;45.636;11.756;2024-02-23T01:16:04;28.17;;;13.60;;
73136;SDS011;67767;45.636;11.756;2024-02-23T01:18:31;29.33;;;15.37;;
73136;SDS011;67767;45.636;11.756;2024-02-23T01:20:57;31.67;;;15.98;;
73136;SDS011;67767;45.636;11.756;2024-02-23T01:23:23;27.33;;;14.68;;
73136;SDS011;67767;45.636;11.756;2024-02-23T01:25:49;26.20;;;13.68;;
73136;SDS011;67767;45.636;11.756;2024-02-23T01:28:15;26.67;;;13.65;;
73136;SDS011;67767;45.636;11.756;2024-02-23T01:30:41;24.77;;;13.03;;
73136;SDS011;67767;45.636;11.756;2024-02-23T01:33:07;25.25;;;13.00;;
73136;SDS011;67767;45.636;11.756;2024-02-23T01:35:33;24.85;;;12.68;;
73136;SDS011;67767;45.636;11.756;2024-02-23T01:37:59;25.30;;;12.32;;
73136;SDS011;67767;45.636;11.756;2024-02-23T01:40:25;23.33;;;11.75;;
73136;SDS011;67767;45.636;11.756;2024-02-23T01:43:04;22.20;;;11.67;;
73136;SDS011;67767;45.636;11.756;2024-02-23T01:45:30;25.35;;;12.90;;
73136;SDS011;67767;45.636;11.756;2024-02-23T01:47:56;25.98;;;14.30;;
73136;SDS011;67767;45.636;11.756;2024-02-23T01:50:23;29.20;;;15.30;;
73136;SDS011;67767;45.636;11.756;2024-02-23T01:52:49;31.65;;;16.60;;
73136;SDS011;67767;45.636;11.756;2024-02-23T01:55:17;30.63;;;16.07;;
73136;SDS011;67767;45.636;11.756;2024-02-23T01:57:44;26.95;;;15.02;;
73136;SDS011;67767;45.636;11.756;2024-02-23T02:00:11;26.42;;;13.98;;
73136;SDS011;67767;45.636;11.756;2024-02-23T02:02:40;24.65;;;13.63;;
73136;SDS011;67767;45.636;11.756;2024-02-23T02:05:06;25.95;;;13.77;;
73136;SDS011;67767;45.636;11.756;2024-02-23T02:07:32;23.63;;;11.90;;
73136;SDS011;67767;45.636;11.756;2024-02-23T02:09:59;21.95;;;11.65;;
73136;SDS011;67767;45.636;11.756;2024-02-23T02:12:28;21.73;;;11.50;;
73136;SDS011;67767;45.636;11.756;2024-02-23T02:14:54;20.13;;;10.63;;
73136;SDS011;67767;45.636;11.756;2024-02-23T02:17:21;18.30;;;9.25;;
73136;SDS011;67767;45.636;11.756;2024-02-23T02:19:50;20.37;;;11.00;;
73136;SDS011;67767;45.636;11.756;2024-02-23T02:22:16;19.58;;;9.60;;
73136;SDS011;67767;45.636;11.756;2024-02-23T02:24:42;16.55;;;9.02;;
73136;SDS011;67767;45.636;11.756;2024-02-23T02:27:11;17.58;;;9.07;;
73136;SDS011;67767;45.636;11.756;2024-02-23T02:29:37;15.93;;;8.93;;
73136;SDS011;67767;45.636;11.756;2024-02-23T02:32:03;17.20;;;9.13;;
73136;SDS011;67767;45.636;11.756;2024-02-23T02:34:29;16.33;;;8.40;;
73136;SDS011;67767;45.636;11.756;2024-02-23T02:36:55;18.08;;;8.52;;
73136;SDS011;67767;45.636;11.756;2024-02-23T02:39:21;17.38;;;8.80;;
73136;SDS011;67767;45.636;11.756;2024-02-23T02:41:48;16.25;;;8.77;;
73136;SDS011;67767;45.636;11.756;2024-02-23T02:44:14;16.93;;;8.73;;
73136;SDS011;67767;45.636;11.756;2024-02-23T02:46:40;18.17;;;8.98;;
73136;SDS011;67767;45.636;11.756;2024-02-23T02:49:06;16.42;;;8.55;;
73136;SDS011;67767;45.636;11.756;2024-02-23T02:51:33;13.65;;;7.47;;
73136;SDS011;67767;45.636;11.756;2024-02-23T02:53:59;15.30;;;7.75;;
73136;SDS011;67767;45.636;11.756;2024-02-23T02:56:25;14.53;;;7.23;;
73136;SDS011;67767;45.636;11.756;2024-02-23T02:58:51;13.70;;;7.13;;
73136;SDS011;67767;45.636;11.756;2024-02-23T03:01:17;15.00;;;7.50;;
73136;SDS011;67767;45.636;11.756;2024-02-23T03:03:43;13.73;;;7.38;;
73136;SDS011;67767;45.636;11.756;2024-02-23T03:06:09;13.13;;;7.07;;
73136;SDS011;67767;45.636;11.756;2024-02-23T03:08:35;13.00;;;6.93;;
73136;SDS011;67767;45.636;11.756;2024-02-23T03:11:01;12.07;;;6.32;;
73136;SDS011;67767;45.636;11.756;2024-02-23T03:13:27;13.07;;;6.60;;
73136;SDS011;67767;45.636;11.756;2024-02-23T03:15:53;12.52;;;7.20;;
73136;SDS011;67767;45.636;11.756;2024-02-23T03:18:19;13.15;;;6.20;;
73136;SDS011;67767;45.636;11.756;2024-02-23T03:20:45;12.67;;;6.63;;
73136;SDS011;67767;45.636;11.756;2024-02-23T03:23:11;13.82;;;6.93;;
73136;SDS011;67767;45.636;11.756;2024-02-23T03:25:38;11.23;;;5.88;;
73136;SDS011;67767;45.636;11.756;2024-02-23T03:28:04;11.50;;;6.18;;
73136;SDS011;67767;45.636;11.756;2024-02-23T03:30:30;11.65;;;5.70;;
73136;SDS011;67767;45.636;11.756;2024-02-23T03:32:56;11.40;;;6.00;;
73136;SDS011;67767;45.636;11.756;2024-02-23T03:35:22;10.85;;;5.22;;
73136;SDS011;67767;45.636;11.756;2024-02-23T03:37:48;10.35;;;5.50;;
73136;SDS011;67767;45.636;11.756;2024-02-23T03:40:14;9.98;;;5.50;;
73136;SDS011;67767;45.636;11.756;2024-02-23T03:42:43;10.00;;;5.30;;
73136;SDS011;67767;45.636;11.756;2024-02-23T03:45:09;10.13;;;5.63;;
73136;SDS011;67767;45.636;11.756;2024-02-23T03:47:35;10.60;;;5.35;;
73136;SDS011;67767;45.636;11.756;2024-02-23T03:50:01;8.75;;;4.68;;
73136;SDS011;67767;45.636;11.756;2024-02-23T03:52:27;9.73;;;5.60;;
73136;SDS011;67767;45.636;11.756;2024-02-23T03:54:53;11.30;;;5.35;;
73136;SDS011;67767;45.636;11.756;2024-02-23T03:57:20;9.33;;;4.93;;
73136;SDS011;67767;45.636;11.756;2024-02-23T03:59:52;9.15;;;4.93;;
73136;SDS011;67767;45.636;11.756;2024-02-23T04:02:18;9.90;;;4.18;;
73136;SDS011;67767;45.636;11.756;2024-02-23T04:04:44;8.50;;;4.38;;
73136;SDS011;67767;45.636;11.756;2024-02-23T04:07:10;7.80;;;3.85;;
73136;SDS011;67767;45.636;11.756;2024-02-23T04:09:36;8.80;;;4.00;;
73136;SDS011;67767;45.636;11.756;2024-02-23T04:12:02;7.78;;;4.07;;
73136;SDS011;67767;45.636;11.756;2024-02-23T04:14:28;7.22;;;3.60;;
73136;SDS011;67767;45.636;11.756;2024-02-23T04:16:54;10.15;;;3.88;;
73136;SDS011;67767;45.636;11.756;2024-02-23T04:19:20;8.38;;;3.95;;
73136;SDS011;67767;45.636;11.756;2024-02-23T04:21:46;7.57;;;3.47;;
73136;SDS011;67767;45.636;11.756;2024-02-23T04:24:12;7.82;;;3.75;;
73136;SDS011;67767;45.636;11.756;2024-02-23T04:26:38;7.38;;;3.60;;
73136;SDS011;67767;45.636;11.756;2024-02-23T04:29:04;7.10;;;3.28;;
73136;SDS011;67767;45.636;11.756;2024-02-23T04:31:30;7.47;;;3.25;;
73136;SDS011;67767;45.636;11.756;2024-02-23T04:33:57;7.30;;;3.10;;
73136;SDS011;67767;45.636;11.756;2024-02-23T04:36:23;6.22;;;2.97;;
73136;SDS011;67767;45.636;11.756;2024-02-23T04:38:49;6.80;;;3.00;;
73136;SDS011;67767;45.636;11.756;2024-02-23T04:41:15;5.93;;;2.70;;
73136;SDS011;67767;45.636;11.756;2024-02-23T04:43:45;8.43;;;3.03;;
73136;SDS011;67767;45.636;11.756;2024-02-23T04:46:11;8.57;;;3.23;;
73136;SDS011;67767;45.636;11.756;2024-02-23T04:48:38;7.15;;;3.35;;
73136;SDS011;67767;45.636;11.756;2024-02-23T04:51:04;6.10;;;2.67;;
73136;SDS011;67767;45.636;11.756;2024-02-23T04:53:35;6.03;;;2.78;;
73136;SDS011;67767;45.636;11.756;2024-02-23T04:56:02;7.45;;;2.90;;
73136;SDS011;67767;45.636;11.756;2024-02-23T04:58:28;5.73;;;2.87;;
73136;SDS011;67767;45.636;11.756;2024-02-23T05:00:54;6.40;;;2.80;;
73136;SDS011;67767;45.636;11.756;2024-02-23T05:03:20;5.25;;;2.58;;
73136;SDS011;67767;45.636;11.756;2024-02-23T05:05:46;7.90;;;3.10;;
73136;SDS011;67767;45.636;11.756;2024-02-23T05:08:14;6.50;;;2.85;;
73136;SDS011;67767;45.636;11.756;2024-02-23T05:10:40;6.00;;;2.40;;
73136;SDS011;67767;45.636;11.756;2024-02-23T05:13:06;6.85;;;2.85;;
73136;SDS011;67767;45.636;11.756;2024-02-23T05:15:32;6.40;;;2.72;;
73136;SDS011;67767;45.636;11.756;2024-02-23T05:17:58;7.90;;;3.03;;
73136;SDS011;67767;45.636;11.756;2024-02-23T05:20:24;7.28;;;3.53;;
73136;SDS011;67767;45.636;11.756;2024-02-23T05:22:50;10.30;;;3.00;;
73136;SDS011;67767;45.636;11.756;2024-02-23T05:25:16;6.82;;;3.22;;
73136;SDS011;67767;45.636;11.756;2024-02-23T05:27:42;7.43;;;3.30;;
73136;SDS011;67767;45.636;11.756;2024-02-23T05:30:09;5.90;;;3.10;;
73136;SDS011;67767;45.636;11.756;2024-02-23T05:32:35;7.50;;;3.30;;
73136;SDS011;67767;45.636;11.756;2024-02-23T05:35:01;6.17;;;3.00;;
73136;SDS011;67767;45.636;11.756;2024-02-23T05:37:28;9.20;;;3.47;;
73136;SDS011;67767;45.636;11.756;2024-02-23T05:39:54;7.07;;;3.22;;
73136;SDS011;67767;45.636;11.756;2024-02-23T05:42:20;7.40;;;3.10;;
73136;SDS011;67767;45.636;11.756;2024-02-23T05:44:46;7.53;;;3.38;;
73136;SDS011;67767;45.636;11.756;2024-02-23T05:47:13;8.93;;;3.30;;
73136;SDS011;67767;45.636;11.756;2024-02-23T05:49:39;9.20;;;3.58;;
73136;SDS011;67767;45.636;11.756;2024-02-23T05:52:05;9.02;;;3.65;;
73136;SDS011;67767;45.636;11.756;2024-02-23T05:54:31;9.38;;;3.83;;
73136;SDS011;67767;45.636;11.756;2024-02-23T05:56:57;8.63;;;3.95;;
73136;SDS011;67767;45.636;11.756;2024-02-23T05:59:24;8.93;;;4.37;;
73136;SDS011;67767;45.636;11.756;2024-02-23T06:01:50;10.25;;;4.00;;
73136;SDS011;67767;45.636;11.756;2024-02-23T06:04:17;7.53;;;3.75;;
73136;SDS011;67767;45.636;11.756;2024-02-23T06:06:43;11.73;;;4.68;;
73136;SDS011;67767;45.636;11.756;2024-02-23T06:09:09;10.00;;;3.72;;
73136;SDS011;67767;45.636;11.756;2024-02-23T06:11:35;9.70;;;3.93;;
73136;SDS011;67767;45.636;11.756;2024-02-23T06:14:02;8.82;;;4.28;;
73136;SDS011;67767;45.636;11.756;2024-02-23T06:16:28;10.13;;;4.53;;
73136;SDS011;67767;45.636;11.756;2024-02-23T06:18:54;10.55;;;4.30;;
73136;SDS011;67767;45.636;11.756;2024-02-23T06:21:20;15.02;;;5.25;;
73136;SDS011;67767;45.636;11.756;2024-02-23T06:23:46;12.67;;;4.80;;
73136;SDS011;67767;45.636;11.756;2024-02-23T06:26:12;9.15;;;4.15;;
73136;SDS011;67767;45.636;11.756;2024-02-23T06:28:38;12.77;;;4.80;;
73136;SDS011;67767;45.636;11.756;2024-02-23T06:31:06;9.82;;;4.78;;
73136;SDS011;67767;45.636;11.756;2024-02-23T06:33:33;10.20;;;4.15;;
73136;SDS011;67767;45.636;11.756;2024-02-23T06:35:59;13.10;;;4.87;;
73136;SDS011;67767;45.636;11.756;2024-02-23T06:38:25;9.95;;;4.30;;
73136;SDS011;67767;45.636;11.756;2024-02-23T06:40:51;11.88;;;4.53;;
73136;SDS011;67767;45.636;11.756;2024-02-23T06:43:18;11.32;;;4.75;;
73136;SDS011;67767;45.636;11.756;2024-02-23T06:45:44;11.50;;;4.55;;
73136;SDS011;67767;45.636;11.756;2024-02-23T06:48:10;11.70;;;6.73;;
73136;SDS011;67767;45.636;11.756;2024-02-23T06:50:36;10.13;;;4.32;;
73136;SDS011;67767;45.636;11.756;2024-02-23T06:53:02;8.60;;;4.30;;
73136;SDS011;67767;45.636;11.756;2024-02-23T06:55:28;12.82;;;4.15;;
73136;SDS011;67767;45.636;11.756;2024-02-23T06:57:54;9.82;;;4.68;;
73136;SDS011;67767;45.636;11.756;2024-02-23T07:00:20;9.83;;;4.10;;
73136;SDS011;67767;45.636;11.756;2024-02-23T07:02:47;11.57;;;4.20;;
73136;SDS011;67767;45.636;11.756;2024-02-23T07:05:13;10.57;;;4.13;;
73136;SDS011;67767;45.636;11.756;2024-02-23T07:07:39;9.23;;;4.30;;
73136;SDS011;67767;45.636;11.756;2024-02-23T07:10:06;12.00;;;4.70;;
73136;SDS011;67767;45.636;11.756;2024-02-23T07:12:32;11.93;;;4.93;;
73136;SDS011;67767;45.636;11.756;2024-02-23T07:14:58;10.30;;;4.85;;
73136;SDS011;67767;45.636;11.756;2024-02-23T07:17:24;10.43;;;4.55;;
73136;SDS011;67767;45.636;11.756;2024-02-23T07:19:50;12.63;;;5.43;;
73136;SDS011;67767;45.636;11.756;2024-02-23T07:22:17;10.45;;;4.20;;
73136;SDS011;67767;45.636;11.756;2024-02-23T07:24:45;10.37;;;4.70;;
73136;SDS011;67767;45.636;11.756;2024-02-23T07:27:11;9.30;;;4.30;;
73136;SDS011;67767;45.636;11.756;2024-02-23T07:29:37;10.00;;;4.50;;
73136;SDS011;67767;45.636;11.756;2024-02-23T07:32:03;13.23;;;4.72;;
73136;SDS011;67767;45.636;11.756;2024-02-23T07:34:30;11.13;;;4.88;;
73136;SDS011;67767;45.636;11.756;2024-02-23T07:36:56;12.00;;;4.80;;
73136;SDS011;67767;45.636;11.756;2024-02-23T07:39:22;12.18;;;4.97;;
73136;SDS011;67767;45.636;11.756;2024-02-23T07:41:48;10.65;;;4.95;;
73136;SDS011;67767;45.636;11.756;2024-02-23T07:44:14;13.25;;;5.30;;
73136;SDS011;67767;45.636;11.756;2024-02-23T07:46:41;10.05;;;4.70;;
73136;SDS011;67767;45.636;11.756;2024-02-23T07:49:07;10.17;;;4.40;;
73136;SDS011;67767;45.636;11.756;2024-02-23T07:51:33;10.77;;;4.38;;
73136;SDS011;67767;45.636;11.756;2024-02-23T07:53:59;13.45;;;4.78;;
73136;SDS011;67767;45.636;11.756;2024-02-23T07:56:25;9.68;;;4.50;;
73136;SDS011;67767;45.636;11.756;2024-02-23T07:58:51;15.93;;;4.57;;
73136;SDS011;67767;45.636;11.756;2024-02-23T08:01:17;24.97;;;5.30;;
73136;SDS011;67767;45.636;11.756;2024-02-23T08:03:43;11.32;;;4.88;;
73136;SDS011;67767;45.636;11.756;2024-02-23T08:06:09;12.43;;;5.20;;
73136;SDS011;67767;45.636;11.756;2024-02-23T08:08:37;14.63;;;5.82;;
73136;SDS011;67767;45.636;11.756;2024-02-23T08:11:04;11.65;;;5.20;;
73136;SDS011;67767;45.636;11.756;2024-02-23T08:13:30;12.77;;;4.87;;
73136;SDS011;67767;45.636;11.756;2024-02-23T08:15:57;11.05;;;4.32;;
73136;SDS011;67767;45.636;11.756;2024-02-23T08:18:23;11.32;;;5.20;;
73136;SDS011;67767;45.636;11.756;2024-02-23T08:20:49;11.88;;;4.65;;
73136;SDS011;67767;45.636;11.756;2024-02-23T08:23:15;10.55;;;4.40;;
73136;SDS011;67767;45.636;11.756;2024-02-23T08:25:41;11.87;;;4.63;;
73136;SDS011;67767;45.636;11.756;2024-02-23T08:28:07;10.90;;;4.45;;
73136;SDS011;67767;45.636;11.756;2024-02-23T08:30:33;11.73;;;5.57;;
73136;SDS011;67767;45.636;11.756;2024-02-23T08:33:00;10.50;;;4.20;;
73136;SDS011;67767;45.636;11.756;2024-02-23T08:35:26;14.13;;;5.53;;
73136;SDS011;67767;45.636;11.756;2024-02-23T08:37:52;11.37;;;4.77;;
73136;SDS011;67767;45.636;11.756;2024-02-23T08:40:18;12.68;;;4.80;;
73136;SDS011;67767;45.636;11.756;2024-02-23T08:42:45;13.35;;;4.47;;
73136;SDS011;67767;45.636;11.756;2024-02-23T08:45:12;9.57;;;4.30;;
73136;SDS011;67767;45.636;11.756;2024-02-23T08:47:38;11.15;;;4.10;;
73136;SDS011;67767;45.636;11.756;2024-02-23T08:50:05;7.93;;;3.57;;
73136;SDS011;67767;45.636;11.756;2024-02-23T08:52:31;13.20;;;4.45;;
73136;SDS011;67767;45.636;11.756;2024-02-23T08:54:57;9.98;;;4.00;;
73136;SDS011;67767;45.636;11.756;2024-02-23T08:57:25;10.68;;;4.55;;
73136;SDS011;67767;45.636;11.756;2024-02-23T08:59:51;11.70;;;4.45;;
73136;SDS011;67767;45.636;11.756;2024-02-23T09:02:17;10.20;;;4.27;;
73136;SDS011;67767;45.636;11.756;2024-02-23T09:04:44;8.50;;;3.75;;
73136;SDS011;67767;45.636;11.756;2024-02-23T09:07:10;11.07;;;4.10;;
73136;SDS011;67767;45.636;11.756;2024-02-23T09:09:37;12.90;;;5.43;;
73136;SDS011;67767;45.636;11.756;2024-02-23T09:12:03;11.80;;;3.97;;
73136;SDS011;67767;45.636;11.756;2024-02-23T09:14:29;10.03;;;4.37;;
73136;SDS011;67767;45.636;11.756;2024-02-23T09:16:55;11.50;;;4.63;;
73136;SDS011;67767;45.636;11.756;2024-02-23T09:19:21;11.05;;;4.70;;
73136;SDS011;67767;45.636;11.756;2024-02-23T09:21:47;10.68;;;4.72;;
73136;SDS011;67767;45.636;11.756;2024-02-23T09:24:13;13.30;;;4.45;;
73136;SDS011;67767;45.636;11.756;2024-02-23T09:26:39;10.47;;;4.53;;
73136;SDS011;67767;45.636;11.756;2024-02-23T09:29:05;13.00;;;4.82;;
73136;SDS011;67767;45.636;11.756;2024-02-23T09:31:32;12.75;;;4.38;;
73136;SDS011;67767;45.636;11.756;2024-02-23T09:33:58;12.10;;;4.65;;
73136;SDS011;67767;45.636;11.756;2024-02-23T09:36:24;11.05;;;4.45;;
73136;SDS011;67767;45.636;11.756;2024-02-23T09:38:50;11.07;;;4.50;;
73136;SDS011;67767;45.636;11.756;2024-02-23T09:41:20;10.23;;;4.93;;
73136;SDS011;67767;45.636;11.756;2024-02-23T09:43:46;10.38;;;4.70;;
73136;SDS011;67767;45.636;11.756;2024-02-23T09:46:16;15.35;;;5.55;;
73136;SDS011;67767;45.636;11.756;2024-02-23T09:48:45;10.23;;;4.10;;
73136;SDS011;67767;45.636;11.756;2024-02-23T09:51:11;12.53;;;4.40;;
73136;SDS011;67767;45.636;11.756;2024-02-23T09:53:38;12.98;;;4.72;;
73136;SDS011;67767;45.636;11.756;2024-02-23T09:56:04;11.98;;;4.60;;
73136;SDS011;67767;45.636;11.756;2024-02-23T09:58:31;11.20;;;4.50;;
73136;SDS011;67767;45.636;11.756;2024-02-23T10:00:58;12.95;;;4.90;;
73136;SDS011;67767;45.636;11.756;2024-02-23T10:03:25;11.03;;;4.27;;
73136;SDS011;67767;45.636;11.756;2024-02-23T10:05:53;9.15;;;4.15;;
73136;SDS011;67767;45.636;11.756;2024-02-23T10:08:19;12.93;;;4.90;;
73136;SDS011;67767;45.636;11.756;2024-02-23T10:10:46;10.60;;;4.35;;
73136;SDS011;67767;45.636;11.756;2024-02-23T10:13:17;9.52;;;4.15;;
73136;SDS011;67767;45.636;11.756;2024-02-23T10:15:44;8.70;;;4.10;;
73136;SDS011;67767;45.636;11.756;2024-02-23T10:18:10;9.73;;;4.60;;
73136;SDS011;67767;45.636;11.756;2024-02-23T10:20:36;11.93;;;4.70;;
73136;SDS011;67767;45.636;11.756;2024-02-23T10:23:03;9.88;;;4.60;;
73136;SDS011;67767;45.636;11.756;2024-02-23T10:25:30;10.07;;;4.40;;
73136;SDS011;67767;45.636;11.756;2024-02-23T10:27:57;10.43;;;5.03;;
73136;SDS011;67767;45.636;11.756;2024-02-23T10:30:26;11.45;;;5.13;;
73136;SDS011;67767;45.636;11.756;2024-02-23T10:32:52;9.40;;;4.55;;
73136;SDS011;67767;45.636;11.756;2024-02-23T10:35:20;12.27;;;4.65;;
73136;SDS011;67767;45.636;11.756;2024-02-23T10:37:48;12.40;;;4.68;;
73136;SDS011;67767;45.636;11.756;2024-02-23T10:40:19;9.37;;;4.43;;
73136;SDS011;67767;45.636;11.756;2024-02-23T10:42:46;10.73;;;5.65;;
73136;SDS011;67767;45.636;11.756;2024-02-23T10:45:16;11.63;;;4.55;;
73136;SDS011;67767;45.636;11.756;2024-02-23T10:47:42;13.88;;;7.97;;
73136;SDS011;67767;45.636;11.756;2024-02-23T10:50:08;11.63;;;4.80;;
73136;SDS011;67767;45.636;11.756;2024-02-23T10:52:35;11.50;;;4.87;;
73136;SDS011;67767;45.636;11.756;2024-02-23T10:55:01;11.75;;;5.00;;
73136;SDS011;67767;45.636;11.756;2024-02-23T10:57:31;10.13;;;4.82;;
73136;SDS011;67767;45.636;11.756;2024-02-23T10:59:57;9.00;;;4.78;;
73136;SDS011;67767;45.636;11.756;2024-02-23T11:02:24;10.05;;;4.68;;
73136;SDS011;67767;45.636;11.756;2024-02-23T11:04:53;10.50;;;5.00;;
73136;SDS011;67767;45.636;11.756;2024-02-23T11:07:20;10.02;;;5.10;;
73136;SDS011;67767;45.636;11.756;2024-02-23T11:09:53;8.27;;;4.28;;
73136;SDS011;67767;45.636;11.756;2024-02-23T11:12:23;11.27;;;4.45;;
73136;SDS011;67767;45.636;11.756;2024-02-23T11:14:49;10.57;;;4.72;;
73136;SDS011;67767;45.636;11.756;2024-02-23T11:17:19;15.07;;;7.47;;
73136;SDS011;67767;45.636;11.756;2024-02-23T11:19:46;13.55;;;5.72;;
73136;SDS011;67767;45.636;11.756;2024-02-23T11:22:12;13.05;;;6.30;;
73136;SDS011;67767;45.636;11.756;2024-02-23T11:24:42;8.82;;;3.97;;
73136;SDS011;67767;45.636;11.756;2024-02-23T11:27:12;11.25;;;5.13;;
73136;SDS011;67767;45.636;11.756;2024-02-23T11:29:39;8.70;;;4.33;;
73136;SDS011;67767;45.636;11.756;2024-02-23T11:32:15;9.40;;;5.20;;
73136;SDS011;67767;45.636;11.756;2024-02-23T11:34:41;8.27;;;4.60;;
73136;SDS011;67767;45.636;11.756;2024-02-23T11:37:09;9.88;;;4.28;;
73136;SDS011;67767;45.636;11.756;2024-02-23T11:39:37;9.65;;;4.40;;
73136;SDS011;67767;45.636;11.756;2024-02-23T11:42:06;9.50;;;4.07;;
73136;SDS011;67767;45.636;11.756;2024-02-23T11:44:33;11.27;;;4.78;;
73136;SDS011;67767;45.636;11.756;2024-02-23T11:46:59;9.88;;;5.57;;
73136;SDS011;67767;45.636;11.756;2024-02-23T11:49:28;11.55;;;5.57;;
73136;SDS011;67767;45.636;11.756;2024-02-23T11:51:54;11.60;;;6.18;;
73136;SDS011;67767;45.636;11.756;2024-02-23T11:54:21;11.13;;;6.10;;
73136;SDS011;67767;45.636;11.756;2024-02-23T11:56:48;9.98;;;5.35;;
73136;SDS011;67767;45.636;11.756;2024-02-23T11:59:15;8.13;;;4.50;;
73136;SDS011;67767;45.636;11.756;2024-02-23T12:01:42;10.13;;;5.00;;
73136;SDS011;67767;45.636;11.756;2024-02-23T12:04:08;9.73;;;5.15;;
73136;SDS011;67767;45.636;11.756;2024-02-23T12:06:34;12.50;;;5.57;;
73136;SDS011;67767;45.636;11.756;2024-02-23T12:09:01;12.88;;;5.70;;
73136;SDS011;67767;45.636;11.756;2024-02-23T12:11:27;10.07;;;5.22;;
73136;SDS011;67767;45.636;11.756;2024-02-23T12:13:53;10.43;;;4.97;;
73136;SDS011;67767;45.636;11.756;2024-02-23T12:16:20;11.35;;;6.68;;
73136;SDS011;67767;45.636;11.756;2024-02-23T12:18:52;11.77;;;5.93;;
73136;SDS011;67767;45.636;11.756;2024-02-23T12:21:19;11.45;;;5.85;;
73136;SDS011;67767;45.636;11.756;2024-02-23T12:23:45;11.88;;;6.78;;
73136;SDS011;67767;45.636;11.756;2024-02-23T12:26:16;14.40;;;7.82;;
73136;SDS011;67767;45.636;11.756;2024-02-23T12:28:42;16.27;;;9.48;;
73136;SDS011;67767;45.636;11.756;2024-02-23T12:31:08;16.53;;;9.27;;
73136;SDS011;67767;45.636;11.756;2024-02-23T12:33:35;15.32;;;7.90;;
73136;SDS011;67767;45.636;11.756;2024-02-23T12:36:02;13.68;;;6.97;;
73136;SDS011;67767;45.636;11.756;2024-02-23T12:38:28;11.25;;;6.20;;
73136;SDS011;67767;45.636;11.756;2024-02-23T12:40:54;11.55;;;5.50;;
73136;SDS011;67767;45.636;11.756;2024-02-23T12:43:21;9.10;;;4.43;;
73136;SDS011;67767;45.636;11.756;2024-02-23T12:45:49;10.35;;;5.63;;
73136;SDS011;67767;45.636;11.756;2024-02-23T12:48:15;10.35;;;5.93;;
73136;SDS011;67767;45.636;11.756;2024-02-23T12:50:42;10.63;;;5.95;;
73136;SDS011;67767;45.636;11.756;2024-02-23T12:53:10;18.38;;;6.32;;
73136;SDS011;67767;45.636;11.756;2024-02-23T12:55:36;12.27;;;5.63;;
73136;SDS011;67767;45.636;11.756;2024-02-23T12:58:02;11.10;;;5.93;;
73136;SDS011;67767;45.636;11.756;2024-02-23T13:00:28;11.70;;;6.10;;
73136;SDS011;67767;45.636;11.756;2024-02-23T13:02:54;10.18;;;5.53;;
73136;SDS011;67767;45.636;11.756;2024-02-23T13:05:20;9.13;;;5.13;;
73136;SDS011;67767;45.636;11.756;2024-02-23T13:07:47;9.20;;;4.20;;
73136;SDS011;67767;45.636;11.756;2024-02-23T13:10:13;10.77;;;5.25;;
73136;SDS011;67767;45.636;11.756;2024-02-23T13:12:40;11.10;;;5.30;;
73136;SDS011;67767;45.636;11.756;2024-02-23T13:15:06;10.98;;;5.95;;
73136;SDS011;67767;45.636;11.756;2024-02-23T13:17:32;13.13;;;6.28;;
73136;SDS011;67767;45.636;11.756;2024-02-23T13:19:58;11.07;;;5.13;;
73136;SDS011;67767;45.636;11.756;2024-02-23T13:22:24;10.98;;;5.35;;
73136;SDS011;67767;45.636;11.756;2024-02-23T13:24:50;11.13;;;5.45;;
73136;SDS011;67767;45.636;11.756;2024-02-23T13:27:16;9.18;;;5.13;;
73136;SDS011;67767;45.636;11.756;2024-02-23T13:29:42;9.77;;;5.20;;
73136;SDS011;67767;45.636;11.756;2024-02-23T13:32:08;8.43;;;4.83;;
73136;SDS011;67767;45.636;11.756;2024-02-23T13:34:34;9.07;;;5.00;;
73136;SDS011;67767;45.636;11.756;2024-02-23T13:37:00;10.68;;;5.57;;
73136;SDS011;67767;45.636;11.756;2024-02-23T13:39:26;9.18;;;4.32;;
73136;SDS011;67767;45.636;11.756;2024-02-23T13:41:52;8.95;;;4.53;;
73136;SDS011;67767;45.636;11.756;2024-02-23T13:44:18;10.13;;;5.13;;
73136;SDS011;67767;45.636;11.756;2024-02-23T13:46:44;9.95;;;5.50;;
73136;SDS011;67767;45.636;11.756;2024-02-23T13:49:10;10.05;;;5.40;;
73136;SDS011;67767;45.636;11.756;2024-02-23T13:51:37;12.68;;;8.48;;
73136;SDS011;67767;45.636;11.756;2024-02-23T13:54:03;9.30;;;5.30;;
73136;SDS011;67767;45.636;11.756;2024-02-23T13:56:30;6.97;;;3.60;;
73136;SDS011;67767;45.636;11.756;2024-02-23T13:58:56;5.93;;;2.70;;
73136;SDS011;67767;45.636;11.756;2024-02-23T14:01:22;7.95;;;3.35;;
73136;SDS011;67767;45.636;11.756;2024-02-23T14:03:48;5.68;;;2.50;;
73136;SDS011;67767;45.636;11.756;2024-02-23T14:06:14;8.10;;;3.28;;
73136;SDS011;67767;45.636;11.756;2024-02-23T14:08:40;7.23;;;3.53;;
73136;SDS011;67767;45.636;11.756;2024-02-23T14:11:07;7.28;;;3.70;;
73136;SDS011;67767;45.636;11.756;2024-02-23T14:13:33;9.43;;;5.45;;
73136;SDS011;67767;45.636;11.756;2024-02-23T14:16:00;8.90;;;4.20;;
73136;SDS011;67767;45.636;11.756;2024-02-23T14:18:28;9.20;;;3.97;;